ADDS METAR Data INFO
IDs: Format: Raw Decoded Include TAF

Data at: 1500 UTC 11 Dec 2017

K4O4 111455Z AUTO 23003KT 10SM CLR 06/M01 A3021 RMK AO2
K4O4 111435Z AUTO 00000KT 10SM CLR 03/M02 A3021 RMK AO2
K4O4 111415Z AUTO 00000KT 10SM CLR 01/M03 A3023 RMK AO2
K4O4 111355Z AUTO 00000KT 10SM CLR 00/M05 A3023 RMK AO2
K4O4 111335Z AUTO 00000KT 10SM CLR 00/M05 A3023 RMK AO2
K4O4 111315Z AUTO 00000KT 10SM CLR 00/M04 A3023 RMK AO2
K4O4 111255Z AUTO 00000KT 10SM CLR 00/M05 A3023 RMK AO2
K4O4 111235Z AUTO 00000KT 10SM CLR 00/M05 A3022 RMK AO2
K4O4 111215Z AUTO 22004KT 10SM CLR 00/M04 A3022 RMK AO2
K4O4 111200Z AUTO 20003KT 10SM CLR 00/M05 A3022 RMK AO2
K4O4 111135Z AUTO 21004KT 10SM CLR 01/M05 A3023 RMK AO2
K4O4 111115Z AUTO 00000KT 10SM CLR 02/M05 A3023 RMK AO2
K4O4 111055Z AUTO 00000KT 10SM CLR 01/M05 A3023 RMK AO2
K4O4 111035Z AUTO 00000KT 10SM CLR 01/M04 A3023 RMK AO2
K4O4 111015Z AUTO 00000KT 10SM CLR 02/M04 A3024 RMK AO2
K4O4 110955Z AUTO 21003KT 10SM CLR 03/M05 A3023 RMK AO2
K4O4 110935Z AUTO 22003KT 10SM CLR 03/M05 A3023 RMK AO2
K4O4 110915Z AUTO 23004KT 10SM CLR 03/M05 A3023 RMK AO2
K4O4 110855Z AUTO 22003KT 10SM CLR 02/M05 A3023 RMK AO2
K4O4 110835Z AUTO 21006KT 10SM CLR 03/M05 A3024 RMK AO2
K4O4 110815Z AUTO 00000KT 10SM CLR 04/M06 A3022 RMK AO2
K4O4 110755Z AUTO 00000KT 10SM CLR 03/M05 A3022 RMK AO2
K4O4 110735Z AUTO 00000KT 10SM CLR 02/M04 A3023 RMK AO2
K4O4 110715Z AUTO 25004KT 10SM CLR 04/M04 A3024 RMK AO2
K4O4 110655Z AUTO 00000KT 10SM CLR 06/M05 A3024 RMK AO2
K4O4 110635Z AUTO 00000KT 10SM CLR 05/M05 A3024 RMK AO2
K4O4 110615Z AUTO 00000KT 10SM CLR 05/M05 A3025 RMK AO2
K4O4 110555Z AUTO 21003KT 10SM CLR 06/M05 A3025 RMK AO2
K4O4 110535Z AUTO 21004KT 10SM CLR 07/M05 A3025 RMK AO2
K4O4 110515Z AUTO 21005KT 10SM CLR 07/M05 A3026 RMK AO2
K4O4 110455Z AUTO 21004KT 10SM CLR 07/M05 A3026 RMK AO2
K4O4 110435Z AUTO 22003KT 10SM CLR 07/M05 A3025 RMK AO2
K4O4 110415Z AUTO 26003KT 10SM CLR 07/M05 A3025 RMK AO2
K4O4 110355Z AUTO 25003KT 10SM CLR 08/M05 A3025 RMK AO2
K4O4 110335Z AUTO 22003KT 10SM CLR 08/M05 A3024 RMK AO2
K4O4 110315Z AUTO 22004KT 10SM CLR 08/M05 A3024 RMK AO2
K4O4 110255Z AUTO 23005KT 10SM CLR 08/M05 A3024 RMK AO2
K4O4 110235Z AUTO 24004KT 10SM CLR 09/M05 A3024 RMK AO2
K4O4 110215Z AUTO 24004KT 10SM CLR 10/M05 A3024 RMK AO2
K4O4 110155Z AUTO 24005KT 10SM CLR 10/M06 A3025 RMK AO2
K4O4 110135Z AUTO 24004KT 10SM CLR 11/M06 A3025 RMK AO2
K4O4 110115Z AUTO 24005KT 10SM CLR 11/M06 A3025 RMK AO2
K4O4 110055Z AUTO 23005KT 10SM CLR 12/M06 A3025 RMK AO2
K4O4 110035Z AUTO 23008KT 10SM CLR 12/M06 A3024 RMK AO2
K4O4 110015Z AUTO 23005KT 10SM CLR 12/M06 A3024 RMK AO2
K4O4 102355Z AUTO 24005KT 10SM CLR 14/M07 A3024 RMK AO2
K4O4 102335Z AUTO 24005KT 10SM CLR 15/M07 A3024 RMK AO2
K4O4 102315Z AUTO 25005KT 10SM CLR 16/M07 A3024 RMK AO2
K4O4 102255Z AUTO 26008KT 10SM CLR 18/M08 A3023 RMK AO2
K4O4 102235Z AUTO 26008G14KT 10SM CLR 18/M08 A3023 RMK AO2
K4O4 102215Z AUTO 26009G15KT 10SM CLR 19/M08 A3023 RMK AO2
K4O4 102155Z AUTO 24011KT 10SM CLR 20/M08 A3023 RMK AO2
K4O4 102135Z AUTO 25009KT 10SM CLR 20/M07 A3023 RMK AO2
K4O4 102115Z AUTO 26010G16KT 10SM CLR 20/M07 A3023 RMK AO2
K4O4 102055Z AUTO 23011G16KT 10SM CLR 19/M07 A3023 RMK AO2
K4O4 102035Z AUTO 26010KT 10SM CLR 19/M07 A3023 RMK AO2
K4O4 102015Z AUTO 24012G18KT 10SM CLR 19/M07 A3024 RMK AO2
K4O4 101955Z AUTO 25008G20KT 10SM CLR 19/M07 A3025 RMK AO2
K4O4 101935Z AUTO 26011G18KT 10SM CLR 18/M06 A3026 RMK AO2
K4O4 101915Z AUTO 26010KT 10SM CLR 18/M06 A3027 RMK AO2
K4O4 101855Z AUTO 25011G16KT 10SM CLR 17/M05 A3028 RMK AO2
K4O4 101835Z AUTO 25010KT 10SM CLR 17/M05 A3029 RMK AO2
K4O4 101815Z AUTO 26010KT 10SM CLR 16/M03 A3030 RMK AO2
K4O4 101755Z AUTO 26007KT 10SM CLR 15/M02 A3032 RMK AO2
K4O4 101735Z AUTO 26009KT 10SM CLR 15/M03 A3033 RMK AO2
K4O4 101715Z AUTO 22006KT 10SM CLR 12/M02 A3033 RMK AO2
K4O4 101655Z AUTO 22006KT 10SM CLR 11/M02 A3034 RMK AO2
K4O4 101635Z AUTO 24005KT 10SM CLR 10/M02 A3035 RMK AO2
K4O4 101615Z AUTO 23008KT 10SM CLR 08/M02 A3035 RMK AO2
K4O4 101555Z AUTO 24008KT 10SM CLR 06/M01 A3036 RMK AO2
K4O4 101535Z AUTO 25004KT 10SM CLR 05/00 A3037 RMK AO2
K4O4 101515Z AUTO 00000KT 10SM CLR 03/M01 A3037 RMK AO2
K4O4 101455Z AUTO 00000KT 10SM CLR 01/M02 A3036 RMK AO2
K4O4 101435Z AUTO 22004KT 10SM CLR 00/M03 A3036 RMK AO2
K4O4 101415Z AUTO 00000KT 10SM CLR M01/M03 A3036 RMK AO2
K4O4 101355Z AUTO 00000KT 10SM CLR M02/M04 A3036 RMK AO2
K4O4 101335Z AUTO 00000KT 10SM CLR M03/M05 A3036 RMK AO2
K4O4 101315Z AUTO 00000KT 10SM CLR M04/M06 A3037 RMK AO2
K4O4 101255Z AUTO 00000KT 10SM CLR M03/M05 A3036 RMK AO2
K4O4 101235Z AUTO 00000KT 10SM CLR M03/M05 A3035 RMK AO2
K4O4 101215Z AUTO 00000KT 10SM CLR M03/M05 A3035 RMK AO2
K4O4 101155Z AUTO 00000KT 10SM CLR M02/M05 A3034 RMK AO2
K4O4 101135Z AUTO 00000KT 10SM CLR M03/M05 A3034 RMK AO2
K4O4 101115Z AUTO 00000KT 10SM CLR M02/M05 A3034 RMK AO2
K4O4 101055Z AUTO 00000KT 10SM CLR M01/M04 A3033 RMK AO2
K4O4 101035Z AUTO 00000KT 10SM CLR M02/M04 A3033 RMK AO2
K4O4 101015Z AUTO 00000KT 10SM CLR M03/M05 A3033 RMK AO2
K4O4 100955Z AUTO 23003KT 10SM CLR M03/M06 A3033 RMK AO2
K4O4 100935Z AUTO 00000KT 10SM CLR M02/M05 A3033 RMK AO2
K4O4 100915Z AUTO 00000KT 10SM CLR M02/M05 A3033 RMK AO2
K4O4 100855Z AUTO 00000KT 10SM CLR M02/M05 A3034 RMK AO2
K4O4 100835Z AUTO 20003KT 10SM CLR M01/M05 A3034 RMK AO2
K4O4 100815Z AUTO 21003KT 10SM CLR M01/M05 A3034 RMK AO2
K4O4 100755Z AUTO 21004KT 10SM CLR M01/M05 A3034 RMK AO2
K4O4 100735Z AUTO 00000KT 10SM CLR M01/M05 A3034 RMK AO2
K4O4 100715Z AUTO 00000KT 10SM CLR 00/M05 A3033 RMK AO2
K4O4 100655Z AUTO 00000KT 10SM CLR 00/M05 A3034 RMK AO2
K4O4 100635Z AUTO 00000KT 10SM CLR 00/M05 A3034 RMK AO2
K4O4 100615Z AUTO 00000KT 10SM CLR 01/M05 A3033 RMK AO2
K4O4 100555Z AUTO 00000KT 10SM CLR 01/M05 A3033 RMK AO2
K4O4 100535Z AUTO 00000KT 10SM CLR 02/M05 A3033 RMK AO2
K4O4 100515Z AUTO 00000KT 10SM CLR 01/M05 A3033 RMK AO2
K4O4 100455Z AUTO 00000KT 10SM CLR 00/M05 A3032 RMK AO2
K4O4 100435Z AUTO 30003KT 10SM CLR 00/M05 A3031 RMK AO2
K4O4 100415Z AUTO 00000KT 10SM CLR 02/M05 A3031 RMK AO2
K4O4 100355Z AUTO 30003KT 10SM CLR 02/M05 A3030 RMK AO2
K4O4 100335Z AUTO 00000KT 10SM CLR 02/M05 A3030 RMK AO2
K4O4 100315Z AUTO 28003KT 10SM CLR 01/M04 A3030 RMK AO2